Time;durP1;ratioP1;P1;durP2;ratioP2;P2;SDS_P1;SDS_P2;PMS_P1;PMS_P2;Temp;Humidity;BMP_temperature;BMP_pressure;BME280_temperature;BME280_humidity;BME280_pressure;Samples;Min_cycle;Max_cycle;Signal;HPM_P1;HPM_P2
2022/04/21 00:00:16;;;;;;;0.52;0.52;;;;;;;5.39;65.01;102022.19;5034798;28;20053;-83
2022/04/21 00:02:42;;;;;;;0.85;0.80;;;;;;;5.36;65.12;102008.97;5028711;28;20045;-82
2022/04/21 00:05:09;;;;;;;1.45;0.80;;;;;;;5.34;64.90;102024.69;5018510;28;20040;-81
2022/04/21 00:07:35;;;;;;;1.77;1.00;;;;;;;5.29;64.93;102019.88;5026299;28;20129;-80
2022/04/21 00:10:01;;;;;;;1.83;0.70;;;;;;;5.24;65.49;102016.97;5043023;28;20131;-81
2022/04/21 00:12:28;;;;;;;0.75;0.73;;;;;;;5.24;65.46;102021.56;5028805;28;20033;-80
2022/04/21 00:14:53;;;;;;;2.35;0.70;;;;;;;5.21;65.32;102025.56;5032569;28;20535;-80
2022/04/21 00:17:19;;;;;;;0.80;0.73;;;;;;;5.18;65.76;102036.84;5018214;28;20042;-80
2022/04/21 00:19:45;;;;;;;1.30;0.90;;;;;;;5.15;65.81;102038.09;4997758;28;20741;-80
2022/04/21 00:24:54;;;;;;;0.85;0.80;;;;;;;5.04;66.43;102035.22;5024829;28;20042;-80
2022/04/21 00:27:20;;;;;;;0.80;0.80;;;;;;;5.02;66.43;102048.16;5023128;28;20049;-81
2022/04/21 00:29:46;;;;;;;2.13;1.10;;;;;;;4.97;66.75;102035.19;5027651;28;20459;-81
2022/04/21 00:32:12;;;;;;;2.08;1.00;;;;;;;4.95;66.83;102040.00;5029877;28;20041;-81
2022/04/21 00:34:38;;;;;;;0.75;0.75;;;;;;;4.91;66.36;102037.94;5019234;28;20522;-81
2022/04/21 00:37:04;;;;;;;1.02;0.93;;;;;;;4.87;67.67;102036.69;5032918;28;20045;-82
2022/04/21 00:39:31;;;;;;;0.85;0.85;;;;;;;4.85;67.63;102042.31;5033200;28;20033;-81
2022/04/21 00:42:02;;;;;;;2.92;0.80;;;;;;;4.80;67.43;102045.66;5014332;28;20050;-81
2022/04/21 00:44:29;;;;;;;1.60;1.10;;;;;;;4.77;68.17;102045.25;5021675;28;20050;-81
2022/04/21 00:46:56;;;;;;;0.85;0.85;;;;;;;4.73;68.15;102044.00;5014951;28;20046;-81
2022/04/21 00:49:22;;;;;;;1.10;0.70;;;;;;;4.67;68.21;102040.19;5015253;28;20168;-81
2022/04/21 00:51:51;;;;;;;2.25;0.68;;;;;;;4.66;68.39;102026.81;5000458;28;20128;-82
2022/04/21 00:54:18;;;;;;;0.98;0.82;;;;;;;4.67;68.17;102033.94;5031559;28;20427;-81
2022/04/21 00:56:44;;;;;;;2.03;0.80;;;;;;;4.64;68.66;102029.75;5018018;28;20132;-81
2022/04/21 00:59:10;;;;;;;1.85;0.85;;;;;;;4.62;68.41;102028.28;5002795;28;20519;-81
2022/04/21 01:04:22;;;;;;;2.15;0.90;;;;;;;4.58;68.63;102032.47;5012766;28;20038;-81
2022/04/21 01:06:48;;;;;;;2.90;1.08;;;;;;;4.56;68.61;102032.69;5025083;28;20477;-81
2022/04/21 01:09:13;;;;;;;0.73;0.47;;;;;;;4.51;69.10;102029.72;5019515;28;20874;-81
2022/04/21 01:11:39;;;;;;;0.82;0.80;;;;;;;4.53;68.85;102023.06;5029315;28;20132;-81
2022/04/21 01:14:04;;;;;;;1.33;0.80;;;;;;;4.49;68.65;102037.25;5028446;28;20649;-81
2022/04/21 01:16:30;;;;;;;1.67;0.70;;;;;;;4.48;69.33;102041.00;5031024;28;20400;-81
2022/04/21 01:18:56;;;;;;;1.63;0.80;;;;;;;4.44;69.28;102031.59;5018506;28;20042;-81
2022/04/21 01:21:22;;;;;;;2.28;1.17;;;;;;;4.40;69.57;102033.91;5059165;28;20548;-80
2022/04/21 01:23:47;;;;;;;1.55;0.65;;;;;;;4.37;69.64;102034.31;5028796;28;20041;-80
2022/04/21 01:26:15;;;;;;;1.00;0.80;;;;;;;4.38;69.63;102027.84;5030377;28;20504;-80
2022/04/21 01:28:41;;;;;;;2.28;0.90;;;;;;;4.42;69.75;102033.69;5045721;28;20428;-81
2022/04/21 01:31:06;;;;;;;1.30;0.90;;;;;;;4.39;69.48;102042.25;5020168;28;20033;-80
2022/04/21 01:33:32;;;;;;;1.90;0.88;;;;;;;4.34;69.76;102033.88;5036732;28;20033;-80
2022/04/21 01:35:57;;;;;;;2.03;0.80;;;;;;;4.29;70.16;102025.50;5011499;28;20394;-80
2022/04/21 01:41:11;;;;;;;1.42;0.90;;;;;;;4.25;70.57;102033.25;5031460;28;20045;-81
2022/04/21 01:43:37;;;;;;;2.33;0.90;;;;;;;4.22;70.53;102030.94;5025657;28;20037;-81
2022/04/21 01:46:04;;;;;;;1.15;0.60;;;;;;;4.21;70.69;102030.09;5019029;28;20056;-81
2022/04/21 01:48:30;;;;;;;2.15;1.00;;;;;;;4.20;70.74;102027.59;5031286;28;20519;-81
2022/04/21 01:50:56;;;;;;;5.10;0.98;;;;;;;4.16;70.92;102023.59;5060323;28;20042;-81
2022/04/21 01:53:22;;;;;;;1.33;0.80;;;;;;;4.08;71.67;102018.34;5026823;28;20037;-81
2022/04/21 01:55:47;;;;;;;1.10;1.00;;;;;;;4.03;71.12;102026.28;5035545;28;20663;-81
2022/04/21 01:58:13;;;;;;;0.95;0.90;;;;;;;4.00;71.13;102013.97;5020694;28;20041;-80
2022/04/21 02:00:40;;;;;;;1.60;1.00;;;;;;;3.99;71.04;102019.56;5016459;28;20080;-80
2022/04/21 02:03:06;;;;;;;0.88;0.80;;;;;;;3.99;71.64;102011.41;5026477;28;20038;-80
2022/04/21 02:05:32;;;;;;;1.27;1.00;;;;;;;3.98;71.63;102013.28;5033205;28;20219;-80
2022/04/21 02:07:57;;;;;;;2.38;1.00;;;;;;;3.92;71.61;102019.56;5030876;28;20041;-80
2022/04/21 02:10:23;;;;;;;1.25;1.00;;;;;;;3.91;71.79;102013.28;5028904;28;20041;-80
2022/04/21 02:12:49;;;;;;;3.17;0.90;;;;;;;3.88;71.84;102016.41;5019098;28;20038;-80
2022/04/21 02:15:17;;;;;;;1.50;0.95;;;;;;;3.82;72.06;102009.09;5058832;28;20127;-80
2022/04/21 02:17:44;;;;;;;2.58;1.10;;;;;;;3.79;72.50;102014.06;5010789;28;20037;-80
2022/04/21 02:20:12;;;;;;;1.27;1.02;;;;;;;3.74;72.50;102009.25;5013207;28;20060;-80
2022/04/21 02:22:37;;;;;;;2.45;1.10;;;;;;;3.73;72.44;101998.59;5006394;28;20508;-80
2022/04/21 02:25:08;;;;;;;1.10;0.88;;;;;;;3.67;72.41;102004.84;5026874;28;20033;-81
2022/04/21 02:27:35;;;;;;;2.55;1.05;;;;;;;3.65;73.34;102005.06;5028408;28;20045;-80
2022/04/21 02:30:00;;;;;;;0.85;0.85;;;;;;;3.62;73.17;101997.28;5018394;28;20037;-80
2022/04/21 02:32:26;;;;;;;2.70;1.00;;;;;;;3.64;73.13;102003.34;5014065;28;20094;-81
2022/04/21 02:34:55;;;;;;;2.35;0.65;;;;;;;3.64;73.21;101997.91;5022024;28;20043;-81
2022/04/21 02:37:21;;;;;;;1.23;0.80;;;;;;;3.65;73.26;101999.63;5045081;28;20046;-80
2022/04/21 02:39:48;;;;;;;1.38;1.23;;;;;;;3.64;73.61;102000.63;5027735;28;20033;-80
2022/04/21 02:42:14;;;;;;;1.17;1.00;;;;;;;3.63;73.39;102002.50;5011131;28;20033;-80
2022/04/21 02:44:40;;;;;;;3.33;1.02;;;;;;;3.55;73.59;101999.13;5026953;28;20515;-80
2022/04/21 02:47:07;;;;;;;1.60;0.95;;;;;;;3.55;73.73;102002.69;5024057;28;20129;-81
2022/04/21 02:49:33;;;;;;;2.88;1.00;;;;;;;3.56;73.62;102009.78;5026501;28;20041;-79
2022/04/21 02:51:59;;;;;;;2.67;0.80;;;;;;;3.58;74.12;102006.88;5037603;28;20034;-79
2022/04/21 02:57:22;;;;;;;1.33;1.10;;;;;;;3.84;73.36;102008.88;5027479;28;20428;-80
2022/04/21 02:59:52;;;;;;;2.03;1.27;;;;;;;3.78;73.41;102002.38;5057585;28;20121;-80
2022/04/21 03:02:18;;;;;;;2.00;1.70;;;;;;;3.75;73.06;102012.81;5025777;28;20041;-80
2022/04/21 03:04:44;;;;;;;1.52;1.27;;;;;;;3.68;73.05;102001.09;5029781;28;20130;-80
2022/04/21 03:07:10;;;;;;;1.95;1.50;;;;;;;3.69;73.41;102000.06;5023684;28;20407;-81
2022/04/21 03:09:36;;;;;;;1.70;1.30;;;;;;;3.94;73.35;102009.31;5049408;28;20096;-80
2022/04/21 03:12:03;;;;;;;1.10;0.82;;;;;;;4.22;72.54;102001.88;5028752;28;20084;-81
2022/04/21 03:14:28;;;;;;;1.38;0.98;;;;;;;4.52;71.54;101998.81;5014241;28;20132;-80
2022/04/21 03:16:54;;;;;;;4.18;1.00;;;;;;;4.79;70.81;102005.06;5025793;28;20112;-80
2022/04/21 03:19:19;;;;;;;3.40;1.20;;;;;;;4.99;69.47;102005.06;5032213;28;20455;-80
2022/04/21 03:24:30;;;;;;;1.75;0.90;;;;;;;5.50;68.05;102012.50;5017120;28;20053;-81
2022/04/21 03:26:56;;;;;;;3.05;1.08;;;;;;;5.68;66.86;102005.31;5029859;28;20116;-81
2022/04/21 03:29:21;;;;;;;1.33;0.82;;;;;;;5.96;66.12;102006.91;5022443;28;20586;-81
2022/04/21 03:31:48;;;;;;;3.05;0.80;;;;;;;6.19;65.10;102006.38;5013935;28;20062;-81
2022/04/21 03:34:16;;;;;;;1.00;0.80;;;;;;;6.38;64.78;102018.19;5037113;28;20088;-81
2022/04/21 03:39:11;;;;;;;3.40;1.08;;;;;;;6.76;63.09;102018.97;5028170;28;20488;-81
2022/04/21 03:41:37;;;;;;;1.60;1.17;;;;;;;6.93;62.44;102025.53;5032276;28;20203;-81
2022/04/21 03:44:04;;;;;;;2.92;0.90;;;;;;;7.12;62.52;102028.34;5019641;28;20083;-81
2022/04/21 03:46:30;;;;;;;4.18;0.95;;;;;;;7.44;61.32;102027.16;5013791;28;20049;-81
2022/04/21 03:48:55;;;;;;;3.05;0.98;;;;;;;7.59;60.78;102017.75;5053502;28;20040;-81
2022/04/21 03:51:21;;;;;;;0.90;0.70;;;;;;;7.64;60.18;102034.31;5031901;28;20045;-81
2022/04/21 03:53:47;;;;;;;2.13;1.10;;;;;;;7.68;60.02;102032.78;5022468;28;20037;-81
2022/04/21 03:56:12;;;;;;;1.45;0.80;;;;;;;7.92;59.04;102031.03;5032910;28;20103;-81
2022/04/21 03:58:38;;;;;;;3.40;0.90;;;;;;;8.13;59.04;102034.09;5033004;28;20038;-80
2022/04/21 04:01:03;;;;;;;2.30;1.20;;;;;;;8.14;58.18;102027.56;5032522;28;20041;-81
2022/04/21 04:03:29;;;;;;;1.80;0.88;;;;;;;8.11;57.98;102024.47;5030014;28;20041;-80
2022/04/21 04:05:55;;;;;;;0.70;0.60;;;;;;;8.06;58.33;102027.88;5014749;28;20618;-80
2022/04/21 04:11:05;;;;;;;2.45;1.00;;;;;;;8.34;57.08;102043.75;5040873;28;20037;-79
2022/04/21 04:13:30;;;;;;;1.08;0.85;;;;;;;8.32;57.38;102023.09;5012043;28;20042;-79
2022/04/21 04:15:57;;;;;;;0.95;0.88;;;;;;;8.58;57.18;102036.44;5012836;28;20092;-79
2022/04/21 04:18:22;;;;;;;4.22;1.08;;;;;;;8.41;56.37;102033.53;5014110;28;20120;-80
2022/04/21 04:20:49;;;;;;;3.88;0.82;;;;;;;8.37;57.19;102028.78;5006029;28;20038;-81
2022/04/21 04:23:22;;;;;;;4.50;0.90;;;;;;;8.72;56.77;102037.91;5030759;28;20045;-81
2022/04/21 04:25:47;;;;;;;1.17;0.90;;;;;;;8.86;55.88;102029.50;5030061;28;20030;-81
2022/04/21 04:28:13;;;;;;;1.90;0.90;;;;;;;8.96;55.75;102035.22;5019849;28;20099;-82
2022/04/21 04:30:39;;;;;;;2.92;0.80;;;;;;;9.05;55.88;102033.81;5018185;28;20564;-82
2022/04/21 04:33:06;;;;;;;2.00;1.00;;;;;;;9.07;55.57;102032.50;5018360;28;20046;-83
2022/04/21 04:35:32;;;;;;;1.20;0.40;;;;;;;9.17;55.55;102028.31;5012952;28;20049;-83
2022/04/21 04:37:58;;;;;;;0.77;0.52;;;;;;;9.03;55.21;102035.94;5041528;28;20135;-83
2022/04/21 04:40:25;;;;;;;0.82;0.52;;;;;;;9.12;55.32;102031.78;5027049;28;20054;-83
2022/04/21 04:42:55;;;;;;;3.90;1.10;;;;;;;9.22;55.04;102018.31;5044169;28;20463;-83
2022/04/21 04:48:06;;;;;;;0.90;0.70;;;;;;;9.41;54.21;102032.72;5030817;28;20041;-83
2022/04/21 04:50:32;;;;;;;1.80;1.00;;;;;;;9.75;53.69;102031.00;5007827;28;20068;-83
2022/04/21 04:52:59;;;;;;;1.98;0.40;;;;;;;9.86;53.52;102024.66;5028313;28;20042;-83
2022/04/21 04:55:26;;;;;;;1.02;0.93;;;;;;;9.97;53.15;102031.19;5030503;28;20049;-83
2022/04/21 04:57:51;;;;;;;1.30;1.02;;;;;;;10.14;52.66;102017.53;5044099;28;20085;-84
2022/04/21 05:00:18;;;;;;;3.63;1.15;;;;;;;10.47;52.33;102030.53;5034980;28;20033;-83
2022/04/21 05:02:44;;;;;;;0.80;0.80;;;;;;;10.70;51.86;102019.44;5012161;28;20061;-84
2022/04/21 05:05:15;;;;;;;1.75;1.23;;;;;;;10.83;50.65;102023.78;5016120;28;20048;-83
2022/04/21 05:07:41;;;;;;;1.25;1.05;;;;;;;10.77;51.30;102022.03;5027227;28;20096;-83
2022/04/21 05:10:07;;;;;;;1.10;1.00;;;;;;;10.91;50.42;102009.59;5040953;28;20041;-83
2022/04/21 05:12:33;;;;;;;2.72;1.08;;;;;;;11.20;49.86;102015.84;5026469;28;20463;-84
2022/04/21 05:14:58;;;;;;;2.53;1.00;;;;;;;11.09;50.05;102012.09;5015654;28;20133;-82
2022/04/21 05:17:25;;;;;;;0.93;0.82;;;;;;;11.65;49.50;102004.69;5029668;28;20049;-82
2022/04/21 05:19:52;;;;;;;3.20;1.27;;;;;;;11.75;48.58;102010.28;5043810;28;20523;-82
2022/04/21 05:22:18;;;;;;;1.30;1.20;;;;;;;11.75;49.03;102006.72;5054004;28;20049;-82
2022/04/21 05:24:51;;;;;;;2.85;1.33;;;;;;;12.14;48.27;102001.97;5030736;28;20129;-82
2022/04/21 05:27:17;;;;;;;0.63;0.52;;;;;;;12.32;46.91;102004.41;5026865;28;20060;-82
2022/04/21 05:32:30;;;;;;;1.60;1.00;;;;;;;12.71;47.30;102006.13;5032394;28;20071;-83
2022/04/21 05:34:56;;;;;;;1.90;1.15;;;;;;;13.16;45.84;102019.44;5025601;28;20041;-82
2022/04/21 05:37:22;;;;;;;2.65;0.70;;;;;;;12.90;45.36;102033.03;5048625;28;20041;-83
2022/04/21 05:39:47;;;;;;;4.15;1.05;;;;;;;12.42;46.35;102008.31;5034855;28;20036;-83
2022/04/21 05:42:20;;;;;;;2.22;1.17;;;;;;;11.87;47.34;102017.63;5051098;28;20047;-83
2022/04/21 05:44:46;;;;;;;4.00;1.38;;;;;;;11.85;48.09;102015.13;5032565;28;20095;-83
2022/04/21 05:47:13;;;;;;;2.05;1.00;;;;;;;12.12;48.07;102006.91;5041379;28;20037;-83
2022/04/21 05:49:39;;;;;;;7.47;1.73;;;;;;;12.64;46.24;102022.84;5030127;28;20132;-82
2022/04/21 05:52:07;;;;;;;2.45;1.20;;;;;;;12.82;46.39;102011.44;5030244;28;20296;-81
2022/04/21 05:54:33;;;;;;;2.97;1.38;;;;;;;12.90;45.86;102015.66;5040955;28;20037;-83
2022/04/21 05:56:59;;;;;;;3.20;1.00;;;;;;;12.81;46.24;102009.78;5034590;28;20055;-81
2022/04/21 05:59:24;;;;;;;1.02;0.85;;;;;;;13.20;45.32;102010.41;5050550;28;20064;-82
2022/04/21 06:01:50;;;;;;;4.75;1.40;;;;;;;13.43;44.97;102013.84;5049951;28;20051;-83
2022/04/21 06:04:16;;;;;;;3.42;1.23;;;;;;;13.53;44.41;102006.47;5041621;28;20048;-82
2022/04/21 06:06:42;;;;;;;4.63;1.45;;;;;;;13.84;43.89;102012.13;5029362;28;20420;-83
2022/04/21 06:09:07;;;;;;;2.05;1.33;;;;;;;13.64;43.80;102004.59;5029848;28;20095;-82
2022/04/21 06:11:33;;;;;;;2.65;1.13;;;;;;;13.90;44.41;102005.53;5029863;28;20116;-81
2022/04/21 06:13:59;;;;;;;1.75;1.10;;;;;;;14.25;43.33;101998.47;5030904;28;20424;-81
2022/04/21 06:16:24;;;;;;;1.83;1.13;;;;;;;14.15;43.54;101996.50;5030876;28;20056;-82
2022/04/21 06:18:50;;;;;;;4.50;1.48;;;;;;;14.81;42.32;102012.38;5009926;28;20038;-81
2022/04/21 06:21:16;;;;;;;5.97;2.17;;;;;;;15.00;41.96;101985.84;5047061;28;20041;-82
2022/04/21 06:23:41;;;;;;;4.85;1.40;;;;;;;15.20;40.68;101999.63;5066134;28;20041;-83
2022/04/21 06:26:07;;;;;;;4.20;1.50;;;;;;;14.86;41.02;101985.56;5040921;28;20060;-85
2022/04/21 06:28:35;;;;;;;4.10;1.55;;;;;;;14.38;41.95;102003.47;5050415;28;20072;-85
2022/04/21 06:31:01;;;;;;;4.50;1.60;;;;;;;14.14;42.95;101992.09;5050429;28;20132;-83
2022/04/21 06:33:29;;;;;;;7.95;2.95;;;;;;;13.98;43.25;101991.22;5050532;28;20136;-83
2022/04/21 06:35:56;;;;;;;3.40;1.30;;;;;;;13.95;43.88;101993.69;5049755;28;20045;-84
2022/04/21 06:38:22;;;;;;;2.85;1.13;;;;;;;14.30;43.97;101981.91;5050650;28;20507;-82
2022/04/21 06:40:47;;;;;;;3.13;1.05;;;;;;;14.90;42.14;101985.84;5050543;28;20067;-82
2022/04/21 06:48:44;;;;;;;4.05;1.65;;;;;;;15.72;39.34;101994.81;5034269;28;20053;-82
2022/04/21 06:51:11;;;;;;;3.90;1.50;;;;;;;15.78;39.99;101990.91;5034242;28;20037;-82
2022/04/21 06:53:39;;;;;;;7.53;1.50;;;;;;;15.70;39.27;101997.88;5032992;28;20041;-82
2022/04/21 06:56:05;;;;;;;4.97;1.20;;;;;;;15.36;40.23;101994.91;5041380;28;20041;-82
2022/04/21 06:58:31;;;;;;;3.70;1.40;;;;;;;14.91;41.21;101998.56;5035954;28;20045;-82
2022/04/21 07:00:56;;;;;;;1.45;1.05;;;;;;;14.81;41.49;101991.09;5034402;28;20404;-82
2022/04/21 07:03:23;;;;;;;3.35;1.00;;;;;;;14.76;42.08;101986.41;5034865;28;20053;-82
2022/04/21 07:05:51;;;;;;;2.13;1.05;;;;;;;15.11;41.27;102001.31;5034611;28;20415;-82
2022/04/21 07:08:17;;;;;;;2.35;1.95;;;;;;;15.19;41.41;101992.44;5033874;28;20112;-83
2022/04/21 07:10:43;;;;;;;2.75;1.33;;;;;;;15.93;39.60;101997.22;5034244;28;20141;-83
2022/04/21 07:13:10;;;;;;;5.90;1.40;;;;;;;15.74;39.78;102006.44;5033017;28;20084;-82
2022/04/21 07:15:35;;;;;;;2.72;1.15;;;;;;;15.49;40.43;101996.25;5033733;28;20092;-85
2022/04/21 07:18:01;;;;;;;7.30;1.43;;;;;;;15.62;40.14;101990.16;5042181;28;20048;-83
2022/04/21 07:20:27;;;;;;;7.23;1.27;;;;;;;15.62;40.19;101996.53;5051263;28;20045;-83
2022/04/21 07:22:53;;;;;;;1.47;0.90;;;;;;;15.57;40.29;101990.13;5032166;28;20145;-83
2022/04/21 07:25:18;;;;;;;3.05;0.90;;;;;;;15.26;40.75;102001.28;5015055;28;20407;-84
2022/04/21 07:27:44;;;;;;;4.53;1.23;;;;;;;14.99;41.03;102003.53;5033262;28;20049;-83
2022/04/21 07:30:10;;;;;;;1.30;0.70;;;;;;;15.11;41.08;102000.50;5033351;28;20033;-83
2022/04/21 07:32:36;;;;;;;2.63;1.20;;;;;;;15.66;39.68;101991.25;5028629;28;20048;-82
2022/04/21 07:35:07;;;;;;;3.20;1.10;;;;;;;15.64;39.93;101991.53;5033449;28;20049;-82
2022/04/21 07:37:36;;;;;;;3.08;1.17;;;;;;;15.46;40.22;101999.59;5032985;28;20037;-83
2022/04/21 07:40:02;;;;;;;2.63;1.20;;;;;;;15.95;38.84;101994.16;5033844;28;20049;-80
2022/04/21 07:42:28;;;;;;;1.60;0.67;;;;;;;16.35;38.78;102006.97;5045082;28;20048;-80
2022/04/21 07:44:53;;;;;;;1.87;0.70;;;;;;;16.32;38.29;101987.34;5052373;28;20047;-81
2022/04/21 07:47:19;;;;;;;3.97;1.10;;;;;;;16.26;38.39;101994.81;5053429;28;20036;-82
2022/04/21 07:49:45;;;;;;;3.50;1.00;;;;;;;16.72;38.04;101992.59;5045002;28;20048;-80
2022/04/21 07:54:55;;;;;;;3.50;1.00;;;;;;;16.77;37.58;101989.78;5049929;28;20813;-81
2022/04/21 07:57:21;;;;;;;2.10;0.90;;;;;;;16.82;37.28;101998.03;5030785;28;20049;-81
2022/04/21 07:59:47;;;;;;;2.97;1.20;;;;;;;16.90;37.04;101993.84;5032155;28;20046;-81
2022/04/21 08:02:16;;;;;;;2.90;1.08;;;;;;;17.22;36.75;101992.44;5032998;28;20041;-81
2022/04/21 08:04:44;;;;;;;2.53;1.10;;;;;;;17.02;37.31;101988.75;5032376;28;20041;-82
2022/04/21 08:07:10;;;;;;;5.30;1.00;;;;;;;16.85;37.17;101996.66;5019115;28;20041;-82
2022/04/21 08:09:36;;;;;;;1.80;0.90;;;;;;;16.92;36.99;101994.38;5052543;28;20045;-82
2022/04/21 08:12:01;;;;;;;2.03;1.37;;;;;;;17.35;36.43;101989.78;5051683;28;20535;-83
2022/04/21 08:14:28;;;;;;;4.40;1.23;;;;;;;17.31;35.90;101988.72;5029005;28;20041;-82
2022/04/21 08:16:54;;;;;;;0.80;0.80;;;;;;;16.98;36.68;102015.38;5052718;28;20526;-84
2022/04/21 08:19:21;;;;;;;2.05;0.88;;;;;;;16.50;37.62;101990.25;5061276;28;20045;-84
2022/04/21 08:21:50;;;;;;;1.08;0.90;;;;;;;16.27;37.87;101999.25;5032476;28;20541;-82
2022/04/21 08:32:43;;;;;;;1.73;0.93;;;;;;;16.35;38.01;101990.34;5034988;28;20132;-83
2022/04/21 08:35:13;;;;;;;0.70;0.70;;;;;;;15.50;38.84;101993.22;5048337;28;20041;-83
2022/04/21 08:37:45;;;;;;;1.77;1.17;;;;;;;15.21;39.54;102008.75;5048799;28;20052;-83
2022/04/21 08:40:11;;;;;;;1.88;1.20;;;;;;;14.90;40.41;101999.66;5018399;28;20037;-84
2022/04/21 08:42:39;;;;;;;1.73;1.00;;;;;;;14.70;40.88;102001.31;5012088;28;20523;-82
2022/04/21 08:45:06;;;;;;;1.75;1.00;;;;;;;15.16;40.19;101992.19;5012511;28;20120;-81
2022/04/21 08:47:32;;;;;;;2.05;1.73;;;;;;;15.20;40.02;101983.03;5048837;28;20045;-81
2022/04/21 08:50:12;;;;;;;1.70;1.10;;;;;;;15.09;40.62;101990.50;5052293;28;20048;-81
2022/04/21 08:52:39;;;;;;;1.17;1.05;;;;;;;15.27;40.48;101979.97;5039940;28;20052;-81
2022/04/21 08:55:05;;;;;;;3.70;1.50;;;;;;;15.75;38.91;101977.66;5030887;28;20412;-81
2022/04/21 08:57:31;;;;;;;5.05;1.10;;;;;;;15.69;39.00;101990.69;5036735;28;20075;-81
2022/04/21 08:59:59;;;;;;;3.08;1.17;;;;;;;15.41;39.32;101988.53;5032488;28;20071;-81
2022/04/21 09:02:34;;;;;;;3.00;1.55;;;;;;;15.27;39.47;101975.31;5033740;28;20038;-81
2022/04/21 09:05:01;;;;;;;0.68;0.68;;;;;;;15.25;38.82;101990.50;5031885;28;20064;-80
2022/04/21 09:07:27;;;;;;;3.20;1.30;;;;;;;14.73;40.61;101986.13;5029527;28;20033;-80
2022/04/21 09:10:01;;;;;;;2.10;1.00;;;;;;;14.65;39.53;101970.94;5020334;28;20064;-80
2022/04/21 09:12:27;;;;;;;1.88;1.00;;;;;;;14.31;40.30;102025.00;5031839;28;20496;-80
2022/04/21 09:14:53;;;;;;;0.88;0.73;;;;;;;14.10;41.03;101957.84;5014272;28;20060;-80
2022/04/21 09:17:18;;;;;;;1.40;0.77;;;;;;;14.31;40.67;101991.84;5013490;28;20042;-79
2022/04/21 09:20:00;;;;;;;1.88;0.90;;;;;;;14.05;40.56;101964.16;5010711;28;20126;-79
2022/04/21 09:22:31;;;;;;;2.38;0.95;;;;;;;13.52;41.60;101949.66;5026833;28;20076;-81
2022/04/21 09:24:58;;;;;;;3.28;1.60;;;;;;;12.75;43.75;101955.75;5027276;28;20034;-80
2022/04/21 09:27:23;;;;;;;0.88;0.68;;;;;;;12.18;45.25;101972.03;5062387;28;20049;-79
2022/04/21 09:29:50;;;;;;;1.98;1.15;;;;;;;11.60;46.16;101973.50;5031198;28;20091;-80
2022/04/21 09:32:20;;;;;;;1.50;1.10;;;;;;;11.18;47.24;101963.06;5044122;28;20044;-81
2022/04/21 09:34:50;;;;;;;1.25;0.90;;;;;;;10.98;46.87;101954.53;5051206;28;20045;-81
2022/04/21 09:37:20;;;;;;;1.42;0.90;;;;;;;10.80;47.43;101972.94;5033417;28;20171;-81
2022/04/21 09:39:50;;;;;;;3.70;1.10;;;;;;;10.65;47.50;101978.16;5049993;28;20036;-82
2022/04/21 09:42:29;;;;;;;1.55;0.90;;;;;;;10.52;48.07;101979.31;5051039;28;20040;-81
2022/04/21 09:47:49;;;;;;;1.20;0.73;;;;;;;10.58;46.45;101948.13;5027078;28;20041;-81
2022/04/21 09:50:15;;;;;;;4.15;0.85;;;;;;;10.67;45.12;101958.69;5031818;28;20055;-81
2022/04/21 09:52:54;;;;;;;1.42;0.55;;;;;;;10.71;45.69;101946.13;5013123;28;20041;-79
2022/04/21 09:55:32;;;;;;;;;;;;;;;10.79;45.27;101959.47;5025310;28;20042;-83
2022/04/21 09:58:08;;;;;;;1.48;0.45;;;;;;;10.82;44.40;101959.78;5025412;28;20411;-86
2022/04/21 10:00:35;;;;;;;1.75;0.80;;;;;;;10.77;45.12;101967.13;5025440;28;20547;-81
2022/04/21 10:03:02;;;;;;;6.00;1.00;;;;;;;10.69;44.26;101957.38;5029844;28;20048;-81
2022/04/21 10:05:30;;;;;;;1.73;0.90;;;;;;;10.60;44.38;101982.75;5044868;28;20038;-85
2022/04/21 10:07:59;;;;;;;2.63;0.93;;;;;;;10.48;45.54;101953.47;5020663;28;20045;-82
2022/04/21 10:10:26;;;;;;;0.55;0.55;;;;;;;10.41;44.97;101944.56;5010219;28;20091;-83
2022/04/21 10:12:55;;;;;;;2.08;0.65;;;;;;;10.40;45.68;101942.03;5010278;28;20048;-83
2022/04/21 10:15:21;;;;;;;1.63;1.00;;;;;;;10.52;45.47;101951.88;5031032;28;20090;-83
2022/04/21 10:17:46;;;;;;;2.28;1.00;;;;;;;10.54;45.81;101940.63;5013411;28;20048;-83
2022/04/21 10:20:12;;;;;;;2.85;0.45;;;;;;;10.58;45.83;101950.88;5030129;28;20037;-84
2022/04/21 10:22:38;;;;;;;0.95;0.40;;;;;;;10.61;45.19;101943.25;5021688;28;20070;-84
2022/04/21 10:25:06;;;;;;;3.22;0.90;;;;;;;10.67;46.09;101953.22;5046778;28;20483;-84
2022/04/21 10:27:39;;;;;;;1.95;0.82;;;;;;;10.57;45.44;101951.13;5030282;28;20060;-84
2022/04/21 10:30:13;;;;;;;3.72;1.52;;;;;;;10.49;46.48;101946.06;5015032;28;20076;-83
2022/04/21 10:32:46;;;;;;;1.30;0.85;;;;;;;10.44;47.22;101955.03;5046429;28;20037;-83
2022/04/21 10:35:19;;;;;;;3.15;1.50;;;;;;;10.35;47.02;101956.50;5018592;28;20045;-82
2022/04/21 10:37:45;;;;;;;4.50;1.23;;;;;;;10.31;47.16;101944.38;5014898;28;20044;-83
2022/04/21 10:40:11;;;;;;;2.63;1.10;;;;;;;10.36;47.58;101940.88;5013599;28;20033;-83
2022/04/21 10:42:52;;;;;;;5.97;1.17;;;;;;;10.44;48.30;101933.09;5014655;28;20046;-83
2022/04/21 10:45:24;;;;;;;6.22;1.23;;;;;;;10.46;47.58;101944.66;5014644;28;20503;-83
2022/04/21 10:48:08;;;;;;;1.88;0.98;;;;;;;10.30;48.19;101950.09;5014914;28;20069;-82
2022/04/21 10:50:39;;;;;;;3.08;1.20;;;;;;;10.23;48.62;101936.53;5014653;28;20034;-83
2022/04/21 10:58:37;;;;;;;5.18;1.25;;;;;;;10.07;49.65;101920.88;5013204;28;20125;-83
2022/04/21 11:01:28;;;;;;;1.63;0.80;;;;;;;10.22;48.87;101952.16;5014812;28;20045;-82
2022/04/21 11:04:17;;;;;;;4.70;1.55;;;;;;;10.28;49.03;101917.44;5008585;28;20075;-83
2022/04/21 11:06:51;;;;;;;3.38;1.17;;;;;;;10.35;48.91;101934.56;5014202;28;20530;-83
2022/04/21 11:09:38;;;;;;;3.70;0.80;;;;;;;10.33;48.58;101920.25;5013014;28;20046;-82
2022/04/21 11:12:05;;;;;;;2.10;0.70;;;;;;;10.34;49.38;101921.91;5014809;28;20041;-83
2022/04/21 11:14:33;;;;;;;2.80;1.23;;;;;;;10.31;49.37;101911.44;5049090;28;20037;-83
2022/04/21 11:17:00;;;;;;;1.42;1.05;;;;;;;10.23;49.62;101914.59;5032458;28;20048;-83
2022/04/21 11:19:32;;;;;;;2.08;0.80;;;;;;;10.22;49.87;101905.53;5020308;28;20046;-83
2022/04/21 11:22:05;;;;;;;1.40;0.85;;;;;;;10.31;48.75;101908.72;5013846;28;20038;-83
2022/04/21 11:24:55;;;;;;;2.17;1.20;;;;;;;10.27;48.62;101905.63;5046040;28;20034;-83
2022/04/21 11:27:22;;;;;;;2.15;1.35;;;;;;;10.30;48.01;101885.09;5013893;28;20112;-83
2022/04/21 11:29:48;;;;;;;4.43;1.50;;;;;;;10.41;48.18;101910.78;5013004;28;20444;-83
2022/04/21 11:32:18;;;;;;;2.35;1.00;;;;;;;10.39;47.72;101949.44;5012603;28;20041;-82
2022/04/21 11:34:58;;;;;;;0.60;0.60;;;;;;;10.23;48.21;101920.06;5016799;28;20041;-83
2022/04/21 11:37:43;;;;;;;2.83;0.70;;;;;;;10.17;48.32;101897.19;5013765;28;20053;-83
2022/04/21 11:40:29;;;;;;;0.43;0.40;;;;;;;10.23;47.81;101898.13;5012486;28;20033;-83
2022/04/21 11:42:56;;;;;;;3.13;0.50;;;;;;;10.28;48.22;101895.50;5012491;28;20046;-83
2022/04/21 11:45:24;;;;;;;0.30;0.30;;;;;;;10.32;47.11;101902.13;5029167;28;20053;-83
2022/04/21 11:47:51;;;;;;;8.00;1.00;;;;;;;10.33;48.02;101914.78;5012576;28;20520;-83
2022/04/21 11:50:27;;;;;;;0.98;0.60;;;;;;;10.27;48.04;101902.06;5013412;28;20039;-83
2022/04/21 11:52:54;;;;;;;10.15;0.80;;;;;;;10.16;47.58;101890.03;5013496;28;20402;-83
2022/04/21 11:55:28;;;;;;;0.10;0.10;;;;;;;10.18;48.09;101898.84;5012381;28;20049;-83
2022/04/21 11:57:55;;;;;;;1.92;0.57;;;;;;;10.25;47.81;101896.00;5013008;28;20034;-83
2022/04/21 12:08:38;;;;;;;1.05;1.00;;;;;;;10.15;48.35;101880.16;5012625;28;20042;-82
2022/04/21 12:11:08;;;;;;;2.50;0.52;;;;;;;10.19;48.15;101880.47;5012837;28;20504;-83
2022/04/21 12:13:35;;;;;;;0.30;0.30;;;;;;;10.22;48.54;101877.25;5016978;28;20095;-81
2022/04/21 12:16:00;;;;;;;4.75;0.77;;;;;;;10.29;48.13;101877.13;5030059;28;20454;-82
2022/04/21 12:18:26;;;;;;;0.20;0.20;;;;;;;10.31;47.77;101872.22;5011628;28;20129;-82
2022/04/21 12:20:55;;;;;;;3.08;0.60;;;;;;;10.31;47.79;101884.00;5040318;28;20518;-82
2022/04/21 12:23:24;;;;;;;;;;;;;;;10.28;48.11;101876.28;5036258;28;20033;-84
2022/04/21 12:25:50;;;;;;;2.92;0.80;;;;;;;10.27;47.52;101866.41;5019028;28;19928;-82
2022/04/21 12:28:16;;;;;;;1.15;0.60;;;;;;;10.23;48.57;101914.59;5013145;28;20053;-81